createdAt,value
2022-12-02T00:02:11.052Z,1.8
2022-12-02T00:07:19.041Z,1.7
2022-12-02T00:12:26.961Z,1.7
2022-12-02T00:17:34.897Z,1.7
2022-12-02T00:22:42.893Z,1.7
2022-12-02T00:27:50.775Z,1.7
2022-12-02T00:32:58.704Z,1.7
2022-12-02T00:38:06.696Z,1.7
2022-12-02T00:43:19.063Z,1.7
2022-12-02T00:58:38.453Z,1.6
2022-12-02T01:03:46.349Z,1.6
2022-12-02T01:08:52.117Z,1.6
2022-12-02T01:13:58.496Z,1.6
2022-12-02T01:19:04.815Z,1.6
2022-12-02T01:24:11.162Z,1.6
2022-12-02T01:29:19.143Z,1.6
2022-12-02T01:39:35.008Z,1.5
2022-12-02T01:49:49.339Z,1.5
2022-12-02T01:54:55.635Z,1.5
2022-12-02T02:00:01.992Z,1.5
2022-12-02T02:05:08.377Z,1.5
2022-12-02T02:20:30.621Z,1.4
2022-12-02T02:25:36.936Z,1.4
2022-12-02T02:30:43.434Z,1.4
2022-12-02T02:40:57.645Z,1.4
2022-12-02T02:46:04.055Z,1.4
2022-12-02T02:51:10.295Z,1.4
2022-12-02T02:56:16.870Z,1.4
2022-12-02T03:01:23.107Z,1.4
2022-12-02T03:06:29.371Z,1.4
2022-12-02T03:11:35.741Z,1.4
2022-12-02T03:16:42.149Z,1.3
2022-12-02T03:21:48.451Z,1.3
2022-12-02T03:26:54.808Z,1.3
2022-12-02T03:32:01.144Z,1.3
2022-12-02T03:37:07.530Z,1.3
2022-12-02T03:42:13.893Z,1.3
2022-12-02T03:47:20.238Z,1.3
2022-12-02T03:52:26.576Z,1.3
2022-12-02T03:57:32.964Z,1.3
2022-12-02T04:02:39.409Z,1.3
2022-12-02T04:07:47.309Z,1.3
2022-12-02T04:18:03.172Z,1.2
2022-12-02T04:23:11.074Z,1.2
2022-12-02T04:33:26.973Z,1.2
2022-12-02T04:38:34.905Z,1.2
2022-12-02T04:43:42.851Z,1.2
2022-12-02T04:48:50.813Z,1.2
2022-12-02T04:53:58.717Z,1.2
2022-12-02T04:59:06.656Z,1.2
2022-12-02T05:04:14.736Z,1.2
2022-12-02T05:14:30.471Z,1.2
2022-12-02T05:19:36.863Z,1.1
2022-12-02T05:24:43.180Z,1.1
2022-12-02T05:40:05.457Z,1.1
2022-12-02T05:45:11.792Z,1.1
2022-12-02T05:50:18.140Z,1.1
2022-12-02T05:55:24.527Z,1.1
2022-12-02T06:00:30.837Z,1.1
2022-12-02T06:05:37.200Z,1.1
2022-12-02T06:10:43.579Z,1.1
2022-12-02T06:20:57.875Z,1.1
2022-12-02T06:36:20.120Z,1
2022-12-02T06:41:26.456Z,1
2022-12-02T06:46:32.806Z,1
2022-12-02T06:51:39.185Z,1
2022-12-02T06:56:45.497Z,1
2022-12-02T07:01:51.868Z,1
2022-12-02T07:12:05.608Z,1
2022-12-02T07:17:11.933Z,1
2022-12-02T07:22:18.288Z,1
2022-12-02T07:27:24.649Z,1
2022-12-02T07:32:30.992Z,1
2022-12-02T07:37:37.332Z,1
2022-12-02T07:42:43.722Z,1
2022-12-02T07:47:50.074Z,1
2022-12-02T07:52:56.419Z,1
2022-12-02T07:58:02.800Z,1
2022-12-02T08:03:09.133Z,1
2022-12-02T08:08:15.475Z,1
2022-12-02T08:13:23.456Z,1
2022-12-02T08:18:31.352Z,1
2022-12-02T08:23:39.351Z,1
2022-12-02T08:28:53.727Z,1
2022-12-02T08:33:55.220Z,1
2022-12-02T08:39:03.152Z,1
2022-12-02T08:44:11.120Z,1
2022-12-02T08:49:19.058Z,1
2022-12-02T08:54:26.983Z,1
2022-12-02T08:59:34.963Z,1
2022-12-02T09:09:50.793Z,1
2022-12-02T09:14:58.761Z,1
2022-12-02T09:25:14.612Z,1
2022-12-02T09:30:22.587Z,1
2022-12-02T09:35:30.515Z,1
2022-12-02T09:40:38.449Z,1
2022-12-02T09:50:54.340Z,1
2022-12-02T09:56:00.658Z,1
2022-12-02T10:01:07.041Z,1
2022-12-02T10:06:13.417Z,1
2022-12-02T10:11:19.750Z,1
2022-12-02T10:16:26.108Z,1
2022-12-02T10:21:32.496Z,1
2022-12-02T10:26:38.790Z,1
2022-12-02T10:31:45.282Z,1.1
2022-12-02T10:36:51.521Z,1.1
2022-12-02T10:41:58.865Z,1.1
2022-12-02T10:47:05.294Z,1.1
2022-12-02T10:52:11.613Z,1.1
2022-12-02T10:57:17.923Z,1.1
2022-12-02T11:02:25.951Z,1.1
2022-12-02T11:07:33.900Z,1.1
2022-12-02T11:12:41.758Z,1.1
2022-12-02T11:17:49.754Z,1.1
2022-12-02T11:22:57.671Z,1.1
2022-12-02T11:28:05.608Z,1.1
2022-12-02T11:33:13.552Z,1.1
2022-12-02T11:38:21.498Z,1.2
2022-12-02T11:43:29.439Z,1.2
2022-12-02T11:48:37.397Z,1.2
2022-12-02T11:53:45.338Z,1.2
2022-12-02T11:58:53.260Z,1.2
2022-12-02T12:09:09.172Z,1.2
2022-12-02T12:14:17.106Z,1.2
2022-12-02T12:19:25.047Z,1.2
2022-12-02T12:24:33.167Z,1.2
2022-12-02T12:29:40.932Z,1.2
2022-12-02T12:34:49.275Z,1.2
2022-12-02T12:39:56.950Z,1.2
2022-12-02T12:45:04.782Z,1.1
2022-12-02T12:50:12.786Z,1.2
2022-12-02T12:55:20.698Z,1.2
2022-12-02T13:00:28.586Z,1.1
2022-12-02T13:05:36.898Z,1.1
2022-12-02T13:10:44.527Z,1.1
2022-12-02T13:15:52.420Z,1.1
2022-12-02T13:21:00.375Z,1.1
2022-12-02T13:26:13.487Z,1.1
2022-12-02T13:31:16.313Z,1.1
2022-12-02T13:36:24.196Z,1.1
2022-12-02T13:41:32.161Z,1.1
2022-12-02T13:46:40.115Z,1.1
2022-12-02T13:51:48.003Z,1.1
2022-12-02T13:56:55.984Z,1.1
2022-12-02T14:02:04.077Z,1.1
2022-12-02T14:07:11.843Z,1.1
2022-12-02T14:12:20.050Z,1.1
2022-12-02T14:17:27.712Z,1.1
2022-12-02T14:22:35.668Z,1.1
2022-12-02T14:32:51.592Z,1.1
2022-12-02T14:37:59.495Z,1.1
2022-12-02T14:43:14.036Z,1.1
2022-12-02T14:48:15.401Z,1.1
2022-12-02T14:53:23.349Z,1.1
2022-12-02T14:58:31.274Z,1.1
2022-12-02T15:03:39.271Z,1
2022-12-02T15:08:47.155Z,1
2022-12-02T15:19:03.099Z,1
2022-12-02T15:24:11.011Z,1
2022-12-02T15:29:19.081Z,1
2022-12-02T15:34:26.913Z,1
2022-12-02T15:39:34.832Z,1
2022-12-02T15:44:42.786Z,1
2022-12-02T15:49:50.758Z,0.9
2022-12-02T16:00:06.639Z,0.9
2022-12-02T16:05:13.005Z,0.9
2022-12-02T16:10:19.331Z,0.9
2022-12-02T16:15:26.704Z,0.9
2022-12-02T16:20:33.052Z,0.9
2022-12-02T16:25:40.974Z,0.8
2022-12-02T16:30:49.053Z,0.8
2022-12-02T16:35:56.885Z,0.8
2022-12-02T16:41:04.829Z,0.8
2022-12-02T16:46:12.814Z,0.8
2022-12-02T16:51:20.714Z,0.8
2022-12-02T16:56:28.650Z,0.8
2022-12-02T17:01:36.750Z,0.8
2022-12-02T17:06:44.584Z,0.7
2022-12-02T17:11:52.481Z,0.7
2022-12-02T17:17:06.040Z,0.7
2022-12-02T17:22:08.385Z,0.7
2022-12-02T17:32:24.349Z,0.7
2022-12-02T17:37:32.232Z,0.7
2022-12-02T17:42:40.140Z,0.6
2022-12-02T17:47:48.084Z,0.6
2022-12-02T17:52:56.451Z,0.6
2022-12-02T18:03:12.079Z,0.6
2022-12-02T18:08:19.910Z,0.6
2022-12-02T18:13:27.796Z,0.6
2022-12-02T18:18:35.765Z,0.5
2022-12-02T18:23:43.721Z,0.5
2022-12-02T18:28:51.622Z,0.5
2022-12-02T18:33:59.576Z,0.5
2022-12-02T18:39:07.533Z,0.5
2022-12-02T18:44:15.455Z,0.5
2022-12-02T18:49:23.446Z,0.5
2022-12-02T18:54:31.357Z,0.4
2022-12-02T18:59:39.282Z,0.4
2022-12-02T19:04:47.262Z,0.4
2022-12-02T19:09:55.205Z,0.4
2022-12-02T19:20:11.092Z,0.4
2022-12-02T19:25:19.043Z,0.4
2022-12-02T19:30:26.981Z,0.3
2022-12-02T19:35:34.898Z,0.3
2022-12-02T19:40:45.496Z,0.3
2022-12-02T19:45:50.785Z,0.3
2022-12-02T19:50:58.741Z,0.2
2022-12-02T19:56:06.717Z,0.2
2022-12-02T20:01:14.702Z,0.1
2022-12-02T20:11:30.546Z,0.1
2022-12-02T20:16:38.560Z,0.1
2022-12-02T20:21:46.414Z,0.1
2022-12-02T20:26:54.471Z,0
2022-12-02T20:32:02.305Z,0
2022-12-02T20:37:10.244Z,0
2022-12-02T20:47:26.182Z,0
2022-12-02T20:52:32.539Z,0
2022-12-02T20:57:39.869Z,-0.1
2022-12-02T21:07:54.284Z,-0.1
2022-12-02T21:13:00.851Z,-0.1
2022-12-02T21:18:06.933Z,-0.1
2022-12-02T21:28:21.219Z,-0.2
2022-12-02T21:33:27.554Z,-0.2
2022-12-02T21:38:33.909Z,-0.2
2022-12-02T21:43:40.284Z,-0.2
2022-12-02T21:48:46.638Z,-0.3
2022-12-02T21:53:52.983Z,-0.3
2022-12-02T21:58:59.370Z,-0.3
2022-12-02T22:04:05.671Z,-0.3
2022-12-02T22:09:12.043Z,-0.3
2022-12-02T22:14:18.424Z,-0.4
2022-12-02T22:19:24.762Z,-0.4
2022-12-02T22:24:31.112Z,-0.4
2022-12-02T22:29:37.496Z,-0.4
2022-12-02T22:34:43.818Z,-0.4
2022-12-02T22:39:51.777Z,-0.4
2022-12-02T22:44:59.719Z,-0.5
2022-12-02T22:50:07.662Z,-0.5
2022-12-02T22:55:15.599Z,-0.5
2022-12-02T23:00:23.566Z,-0.5
2022-12-02T23:05:31.495Z,-0.5
2022-12-02T23:10:39.441Z,-0.5
2022-12-02T23:15:47.403Z,-0.5
2022-12-02T23:20:55.325Z,-0.6
2022-12-02T23:26:03.276Z,-0.6
2022-12-02T23:31:11.329Z,-0.6
2022-12-02T23:36:19.164Z,-0.6
2022-12-02T23:41:27.133Z,-0.6
2022-12-02T23:46:35.144Z,-0.6
2022-12-02T23:51:42.994Z,-0.6
2022-12-02T23:56:50.962Z,-0.6
